Time;durP1;ratioP1;P1;durP2;ratioP2;P2;SDS_P1;SDS_P2;PMS_P1;PMS_P2;Temp;Humidity;BMP_temperature;BMP_pressure;BME280_temperature;BME280_humidity;BME280_pressure;Samples;Min_cycle;Max_cycle;Signal;HPM_P1;HPM_P2
2022/03/22 00:01:15;;;;;;;11.75;5.97;;;;;;;8.46;68.87;101630.16;2083412;28;20052;-78
2022/03/22 00:02:38;;;;;;;18.23;9.50;;;;;;;8.45;68.85;101632.72;2088811;28;20040;-78
2022/03/22 00:04:02;;;;;;;10.40;6.55;;;;;;;8.43;68.92;101624.75;2097904;28;20392;-78
2022/03/22 00:05:24;;;;;;;7.72;3.88;;;;;;;8.41;68.89;101618.53;2089692;28;20045;-78
2022/03/22 00:06:46;;;;;;;9.38;4.70;;;;;;;8.39;68.91;101625.47;2087076;28;20055;-78
2022/03/22 00:08:09;;;;;;;13.98;4.10;;;;;;;8.38;68.67;101629.84;2083033;28;20102;-78
2022/03/22 00:09:33;;;;;;;10.73;4.88;;;;;;;8.40;68.54;101624.66;2081655;28;20618;-78
2022/03/22 00:10:56;;;;;;;9.25;4.32;;;;;;;8.40;68.58;101622.03;2076250;28;20064;-78
2022/03/22 00:12:17;;;;;;;7.20;3.80;;;;;;;8.41;68.12;101618.53;2089675;28;20040;-79
2022/03/22 00:13:42;;;;;;;8.00;4.47;;;;;;;8.44;68.10;101615.13;2103404;28;20036;-79
2022/03/22 00:15:06;;;;;;;10.68;3.72;;;;;;;8.46;68.07;101614.34;2092722;28;20082;-78
2022/03/22 00:16:29;;;;;;;7.65;4.15;;;;;;;8.47;67.90;101612.63;2076765;28;20076;-79
2022/03/22 00:17:52;;;;;;;8.73;4.18;;;;;;;8.44;67.57;101609.88;2089760;28;20033;-78
2022/03/22 00:19:15;;;;;;;9.77;4.03;;;;;;;8.44;67.83;101613.41;2092495;28;20045;-78
2022/03/22 00:20:37;;;;;;;8.05;3.05;;;;;;;8.43;67.61;101608.97;2076536;28;20056;-78
2022/03/22 00:22:02;;;;;;;6.00;3.25;;;;;;;8.42;67.60;101606.25;2093182;28;20040;-78
2022/03/22 00:23:25;;;;;;;5.35;2.65;;;;;;;8.39;67.53;101609.69;2083860;28;20045;-79
2022/03/22 00:24:47;;;;;;;7.57;3.25;;;;;;;8.38;67.60;101611.44;2086112;28;20749;-79
2022/03/22 00:26:10;;;;;;;7.82;3.65;;;;;;;8.38;67.51;101613.16;2077516;28;20111;-78
2022/03/22 00:27:50;;;;;;;10.73;3.65;;;;;;;8.36;67.55;101599.03;2075047;28;20029;-79
2022/03/22 00:29:13;;;;;;;18.83;5.65;;;;;;;8.37;67.55;101603.47;2082141;28;20045;-78
2022/03/22 00:30:36;;;;;;;12.00;4.32;;;;;;;8.41;67.16;101605.38;2087146;28;20698;-78
2022/03/22 00:32:02;;;;;;;10.45;4.30;;;;;;;8.44;67.13;101596.72;2098482;28;20055;-78
2022/03/22 00:33:24;;;;;;;9.23;4.18;;;;;;;8.44;66.83;101594.97;2099488;28;20068;-78
2022/03/22 00:34:47;;;;;;;16.13;6.47;;;;;;;8.45;66.93;101585.34;2089605;28;20109;-79
2022/03/22 00:36:10;;;;;;;10.93;5.63;;;;;;;8.47;66.73;101586.31;2098241;28;20133;-78
2022/03/22 00:37:32;;;;;;;12.45;6.28;;;;;;;8.46;66.47;101589.78;2085485;28;20140;-78
2022/03/22 00:38:55;;;;;;;8.60;4.43;;;;;;;8.46;66.44;101590.69;2078542;28;20076;-79
2022/03/22 00:40:16;;;;;;;8.48;3.55;;;;;;;8.44;66.33;101586.19;2100999;28;20055;-78
2022/03/22 00:41:39;;;;;;;9.75;4.63;;;;;;;8.45;66.30;101582.72;2081643;28;20520;-78
2022/03/22 00:43:02;;;;;;;12.13;4.68;;;;;;;8.47;66.17;101575.78;2095181;28;20598;-78
2022/03/22 00:44:25;;;;;;;11.13;4.45;;;;;;;8.47;66.16;101581.91;2107340;28;20364;-78
2022/03/22 00:45:49;;;;;;;7.47;3.53;;;;;;;8.47;66.07;101579.28;2084328;28;20056;-78
2022/03/22 00:47:13;;;;;;;8.02;4.95;;;;;;;8.48;66.04;101562.66;2102732;28;20044;-78
2022/03/22 00:48:36;;;;;;;8.35;4.20;;;;;;;8.50;65.83;101568.00;2083727;28;20053;-79
2022/03/22 00:49:57;;;;;;;9.20;3.40;;;;;;;8.49;65.78;101561.81;2092613;28;20101;-79
2022/03/22 00:51:20;;;;;;;8.63;3.70;;;;;;;8.50;65.65;101560.09;2092733;28;20036;-78
2022/03/22 00:52:42;;;;;;;8.70;3.80;;;;;;;8.50;65.76;101554.84;2078454;28;20073;-79
2022/03/22 00:54:06;;;;;;;8.35;3.25;;;;;;;8.52;65.67;101555.78;2089808;28;20040;-79
2022/03/22 00:55:27;;;;;;;8.15;3.50;;;;;;;8.53;65.69;101550.59;2103898;28;20426;-79
2022/03/22 00:56:51;;;;;;;11.57;4.72;;;;;;;8.52;65.58;101551.44;2094273;28;20063;-79
2022/03/22 00:58:14;;;;;;;12.65;4.93;;;;;;;8.52;65.40;101543.53;2092905;28;20048;-79
2022/03/22 01:01:18;;;;;;;8.23;3.77;;;;;;;8.52;65.22;101543.53;2089510;28;20135;-79
2022/03/22 01:02:45;;;;;;;7.18;3.05;;;;;;;8.54;65.43;101536.56;2094530;28;20289;-79
2022/03/22 01:04:08;;;;;;;5.43;2.40;;;;;;;8.51;65.36;101540.84;2087233;28;20049;-79
2022/03/22 01:05:31;;;;;;;3.65;2.72;;;;;;;8.48;65.38;101536.34;2084412;28;20041;-79
2022/03/22 01:06:54;;;;;;;7.05;2.67;;;;;;;8.48;65.21;101535.44;2081488;28;20434;-79
2022/03/22 01:08:17;;;;;;;7.43;3.17;;;;;;;8.45;65.40;101536.25;2092179;28;20048;-79
2022/03/22 01:09:39;;;;;;;4.65;2.47;;;;;;;8.42;65.47;101535.22;2086895;28;20057;-79
2022/03/22 01:11:01;;;;;;;6.05;2.95;;;;;;;8.39;65.48;101530.78;2078413;28;20045;-79
2022/03/22 01:12:23;;;;;;;5.28;2.58;;;;;;;8.38;65.47;101536.88;2100863;28;20044;-78
2022/03/22 01:13:45;;;;;;;5.32;3.00;;;;;;;8.39;65.25;101531.69;2091539;28;20049;-79
2022/03/22 01:15:13;;;;;;;6.32;2.15;;;;;;;8.40;65.36;101533.44;2084098;28;20481;-79
2022/03/22 01:16:35;;;;;;;4.88;2.75;;;;;;;8.41;65.43;101523.81;2093469;28;20060;-78
2022/03/22 01:18:04;;;;;;;5.43;2.70;;;;;;;8.42;65.42;101530.88;2094877;28;20402;-79
2022/03/22 01:19:25;;;;;;;7.05;2.83;;;;;;;8.44;65.69;101528.31;2096214;28;20044;-79
2022/03/22 01:20:50;;;;;;;5.82;2.88;;;;;;;8.46;65.50;101532.78;2086040;28;20045;-78
2022/03/22 01:22:12;;;;;;;6.60;3.40;;;;;;;8.49;65.31;101532.88;2085632;28;20048;-79
2022/03/22 01:23:34;;;;;;;9.10;5.05;;;;;;;8.52;65.17;101533.00;2095912;28;20041;-79
2022/03/22 01:24:56;;;;;;;5.65;3.60;;;;;;;8.51;65.39;101533.84;2088951;28;20400;-79
2022/03/22 01:26:19;;;;;;;8.27;4.63;;;;;;;8.51;65.29;101532.94;2091402;28;20063;-78
2022/03/22 01:27:42;;;;;;;7.25;3.35;;;;;;;8.50;65.49;101537.31;2104455;28;20032;-79
2022/03/22 01:29:05;;;;;;;7.97;2.65;;;;;;;8.49;65.55;101532.88;2091237;28;20155;-79
2022/03/22 01:30:27;;;;;;;7.28;3.60;;;;;;;8.51;65.56;101530.31;2094912;28;20040;-79
2022/03/22 01:31:50;;;;;;;7.93;3.50;;;;;;;8.50;65.63;101532.06;2070558;28;20050;-79
2022/03/22 01:33:15;;;;;;;8.63;4.15;;;;;;;8.51;65.82;101519.78;2087042;28;20048;-78
2022/03/22 01:34:37;;;;;;;6.63;3.50;;;;;;;8.50;65.62;101521.53;2103061;28;20582;-79
2022/03/22 01:35:59;;;;;;;5.68;2.85;;;;;;;8.49;65.46;101525.00;2094827;28;20052;-79
2022/03/22 01:37:21;;;;;;;5.40;3.80;;;;;;;8.50;65.42;101520.63;2088263;28;20059;-79
2022/03/22 01:38:42;;;;;;;8.02;3.67;;;;;;;8.49;65.45;101517.09;2093058;28;20040;-79
2022/03/22 01:40:06;;;;;;;6.63;3.38;;;;;;;8.49;65.57;101516.19;2080959;28;20428;-79
2022/03/22 01:41:29;;;;;;;7.05;4.50;;;;;;;8.48;65.45;101514.41;2084081;28;20041;-79
2022/03/22 01:42:53;;;;;;;12.25;3.15;;;;;;;8.47;65.66;101507.38;2089237;28;20321;-79
2022/03/22 01:44:14;;;;;;;4.70;3.10;;;;;;;8.46;65.66;101506.47;2090605;28;20040;-79
2022/03/22 01:45:36;;;;;;;6.20;2.30;;;;;;;8.46;65.59;101508.22;2100475;28;20392;-79
2022/03/22 01:47:01;;;;;;;9.20;3.38;;;;;;;8.47;65.35;101507.38;2086243;28;20045;-79
2022/03/22 01:48:24;;;;;;;5.95;3.22;;;;;;;8.49;65.43;101495.16;2085384;28;20090;-78
2022/03/22 01:49:48;;;;;;;5.65;2.50;;;;;;;8.52;65.43;101500.53;2084030;28;20060;-79
2022/03/22 01:51:12;;;;;;;5.72;2.70;;;;;;;8.57;65.20;101496.31;2090515;28;20044;-78
2022/03/22 01:52:39;;;;;;;9.60;3.25;;;;;;;8.61;65.12;101491.22;2094668;28;20058;-78
2022/03/22 01:54:03;;;;;;;7.80;2.80;;;;;;;8.64;65.06;101488.72;2088947;28;20462;-78
2022/03/22 01:55:26;;;;;;;4.03;2.75;;;;;;;8.66;65.02;101484.38;2084252;28;20060;-79
2022/03/22 01:56:49;;;;;;;7.35;3.22;;;;;;;8.69;64.82;101476.59;2102237;28;20568;-78
2022/03/22 01:58:10;;;;;;;7.18;3.75;;;;;;;8.72;64.81;101479.34;2091381;28;20132;-79
2022/03/22 01:59:32;;;;;;;6.70;2.75;;;;;;;8.74;64.83;101479.38;2090523;28;20056;-78
2022/03/22 02:05:51;;;;;;;6.43;2.65;;;;;;;8.77;64.66;101482.13;2111314;28;20047;-79
2022/03/22 02:06:01;;;;;;;6.90;2.40;;;;;;;8.82;64.46;101469.13;2080835;28;20512;-78
2022/03/22 02:07:23;;;;;;;4.18;2.22;;;;;;;8.81;64.34;101470.84;2101106;28;20036;-78
2022/03/22 02:08:46;;;;;;;;;;;;;;;8.83;64.33;101471.81;2075463;28;20097;-78
2022/03/22 02:10:09;;;;;;;11.23;3.95;;;;;;;8.84;64.43;101459.53;2097376;28;19953;-78
2022/03/22 02:11:34;;;;;;;6.43;2.15;;;;;;;8.84;64.36;101456.91;2099633;28;20539;-78
2022/03/22 02:12:56;;;;;;;11.20;3.42;;;;;;;8.88;64.34;101453.53;2098630;28;20106;-78
2022/03/22 02:14:19;;;;;;;4.93;2.63;;;;;;;8.91;64.58;101456.28;2086378;28;20118;-78
2022/03/22 02:15:43;;;;;;;9.30;2.78;;;;;;;8.96;64.06;101463.47;2086427;28;20573;-78
2022/03/22 02:17:10;;;;;;;8.30;3.38;;;;;;;9.01;64.29;101458.34;2069634;28;20050;-78
2022/03/22 02:18:32;;;;;;;8.68;4.65;;;;;;;9.02;64.22;101458.41;2095872;28;20055;-78
2022/03/22 02:19:57;;;;;;;6.65;3.08;;;;;;;9.04;64.03;101454.09;2097136;28;20074;-77
2022/03/22 02:21:22;;;;;;;6.90;2.63;;;;;;;9.05;64.14;101458.53;2086588;28;20051;-78
2022/03/22 02:22:52;;;;;;;5.50;3.28;;;;;;;9.09;63.93;101456.88;2077992;28;20160;-78
2022/03/22 02:24:17;;;;;;;9.52;3.75;;;;;;;9.12;63.72;101449.09;2098997;28;20118;-78
2022/03/22 02:25:39;;;;;;;5.15;2.25;;;;;;;9.14;63.81;101453.53;2072400;28;20050;-77
2022/03/22 02:27:02;;;;;;;6.95;3.78;;;;;;;9.16;63.69;101457.13;2077234;28;20053;-78
2022/03/22 02:28:23;;;;;;;8.02;3.53;;;;;;;9.18;63.81;101451.91;2083488;28;20045;-78
2022/03/22 02:29:46;;;;;;;7.18;2.88;;;;;;;9.22;63.58;101451.16;2093976;28;20462;-78
2022/03/22 02:31:09;;;;;;;8.85;3.17;;;;;;;9.23;63.55;101446.78;2077629;28;20547;-79
2022/03/22 02:32:32;;;;;;;4.68;1.88;;;;;;;9.23;63.21;101445.03;2097557;28;20036;-78
2022/03/22 02:33:55;;;;;;;3.30;1.77;;;;;;;9.24;63.07;101440.66;2083198;28;20053;-78
2022/03/22 02:35:18;;;;;;;4.53;2.05;;;;;;;9.25;63.23;101442.47;2087878;28;20056;-78
2022/03/22 02:36:40;;;;;;;5.32;2.90;;;;;;;9.25;62.99;101438.09;2089555;28;20075;-78
2022/03/22 02:38:04;;;;;;;6.43;2.60;;;;;;;9.28;63.02;101443.44;2106322;28;20047;-79
2022/03/22 02:39:28;;;;;;;4.88;2.15;;;;;;;9.33;63.01;101438.31;2083844;28;20087;-78
2022/03/22 02:40:51;;;;;;;4.97;2.22;;;;;;;9.36;63.16;101441.94;2096391;28;20611;-78
2022/03/22 02:42:14;;;;;;;2.80;1.35;;;;;;;9.39;63.14;101439.41;2096325;28;20101;-79
2022/03/22 02:43:36;;;;;;;4.53;2.05;;;;;;;9.42;62.96;101444.78;2093882;28;20053;-79
2022/03/22 02:44:58;;;;;;;4.55;1.80;;;;;;;9.42;62.89;101452.69;2074947;28;20090;-78
2022/03/22 02:46:22;;;;;;;6.18;2.58;;;;;;;9.41;62.92;101448.25;2075128;28;20140;-79
2022/03/22 02:47:46;;;;;;;5.47;2.35;;;;;;;9.41;62.74;101439.44;2100279;28;20067;-79
2022/03/22 02:49:08;;;;;;;5.20;2.50;;;;;;;9.42;62.59;101444.78;2091027;28;20080;-79
2022/03/22 02:50:31;;;;;;;4.55;2.47;;;;;;;9.42;62.38;101442.13;2087939;28;20575;-78
2022/03/22 02:51:54;;;;;;;17.20;2.47;;;;;;;9.44;62.13;101444.81;2086674;28;20048;-78
2022/03/22 02:53:15;;;;;;;6.93;2.83;;;;;;;9.45;62.20;101447.47;2084638;28;20049;-78
2022/03/22 02:54:39;;;;;;;7.85;2.42;;;;;;;9.48;61.92;101450.22;2079761;28;20049;-79
2022/03/22 02:56:03;;;;;;;5.93;2.40;;;;;;;9.49;61.86;101446.75;2092059;28;20051;-78
2022/03/22 02:57:25;;;;;;;3.30;2.10;;;;;;;9.50;61.75;101453.81;2085619;28;20045;-78
2022/03/22 02:58:48;;;;;;;7.15;2.15;;;;;;;9.53;61.99;101446.00;2083142;28;20044;-78
2022/03/22 03:00:12;;;;;;;6.05;2.67;;;;;;;9.55;61.94;101451.31;2090001;28;20044;-78
2022/03/22 03:01:35;;;;;;;5.40;2.10;;;;;;;9.58;61.86;101451.41;2092401;28;20135;-78
2022/03/22 03:02:56;;;;;;;8.18;2.88;;;;;;;9.57;62.14;101447.88;2090253;28;20491;-78
2022/03/22 03:04:19;;;;;;;6.07;2.95;;;;;;;9.60;62.05;101450.59;2100410;28;20040;-79
2022/03/22 03:05:41;;;;;;;6.30;2.53;;;;;;;9.63;62.28;101449.81;2090765;28;20400;-78
2022/03/22 03:07:05;;;;;;;7.60;2.20;;;;;;;9.65;62.18;101447.22;2099476;28;20065;-78
2022/03/22 03:08:27;;;;;;;4.40;2.47;;;;;;;9.65;62.59;101455.13;2088542;28;20056;-79
2022/03/22 03:09:51;;;;;;;11.35;3.13;;;;;;;9.66;62.78;101454.25;2091919;28;20079;-78
2022/03/22 03:11:12;;;;;;;6.80;2.63;;;;;;;9.66;62.98;101451.63;2080234;28;20072;-78
2022/03/22 03:12:36;;;;;;;8.35;2.63;;;;;;;9.68;62.95;101458.75;2080202;28;20481;-78
2022/03/22 03:15:38;;;;;;;5.63;2.22;;;;;;;9.67;63.17;101454.31;2080177;28;20037;-79
2022/03/22 03:17:00;;;;;;;6.95;2.40;;;;;;;9.66;63.08;101454.25;2091742;28;20085;-78
2022/03/22 03:18:23;;;;;;;7.00;2.88;;;;;;;9.66;63.23;101455.16;2085067;28;20037;-78
2022/03/22 03:19:44;;;;;;;9.35;3.13;;;;;;;9.67;63.13;101464.88;2090701;28;20075;-79
2022/03/22 03:21:07;;;;;;;8.55;2.58;;;;;;;9.66;63.26;101452.53;2102229;28;20474;-79
2022/03/22 03:22:29;;;;;;;7.40;2.53;;;;;;;9.66;63.27;101455.16;2083853;28;20045;-78
2022/03/22 03:23:52;;;;;;;6.25;1.77;;;;;;;9.68;63.27;101458.75;2085030;28;20098;-79
2022/03/22 03:25:14;;;;;;;3.55;2.20;;;;;;;9.71;63.64;101447.41;2091633;28;20086;-79
2022/03/22 03:26:38;;;;;;;5.72;2.13;;;;;;;9.69;63.53;101444.72;2079938;28;20497;-79
2022/03/22 03:28:01;;;;;;;3.72;1.42;;;;;;;9.69;63.21;101457.00;2085378;28;20045;-79
2022/03/22 03:29:22;;;;;;;11.02;3.05;;;;;;;9.67;63.31;101454.31;2081708;28;20509;-79
2022/03/22 03:30:44;;;;;;;6.22;2.85;;;;;;;9.67;63.38;101459.59;2099629;28;20048;-79
2022/03/22 03:32:06;;;;;;;5.78;1.65;;;;;;;9.63;63.51;101460.34;2096990;28;20430;-79
2022/03/22 03:33:28;;;;;;;;;;;;;;;9.58;63.72;101451.41;2102757;28;20043;-79
2022/03/22 03:34:51;;;;;;;5.03;2.83;;;;;;;9.50;63.91;101452.91;2088159;28;19924;-78
2022/03/22 03:36:15;;;;;;;4.22;1.98;;;;;;;9.49;63.94;101462.56;2094283;28;20075;-78
2022/03/22 03:37:37;;;;;;;7.07;2.88;;;;;;;9.47;64.19;101450.19;2088393;28;20433;-78
2022/03/22 03:38:59;;;;;;;;;;;;;;;9.47;63.92;101453.72;2085518;28;20155;-78
2022/03/22 03:41:53;;;;;;;5.13;2.17;;;;;;;9.43;64.34;101456.22;2076728;28;19969;-78
2022/03/22 03:42:06;;;;;;;7.68;3.65;;;;;;;9.37;64.38;101449.00;2106344;28;20411;-79
2022/03/22 03:43:29;;;;;;;5.57;2.33;;;;;;;9.35;64.61;101455.06;2084157;28;20041;-78
2022/03/22 03:48:17;;;;;;;6.72;3.55;;;;;;;9.30;64.50;101449.66;2080373;28;20059;-78
2022/03/22 03:49:41;;;;;;;6.80;3.92;;;;;;;9.29;64.49;101449.59;2078330;28;20049;-78
2022/03/22 03:51:03;;;;;;;11.02;5.07;;;;;;;9.27;64.63;101440.75;2089994;28;20052;-78
2022/03/22 03:52:26;;;;;;;5.78;3.05;;;;;;;9.27;64.29;101441.66;2091189;28;20068;-78
2022/03/22 03:53:49;;;;;;;5.13;3.33;;;;;;;9.26;64.69;101442.50;2076936;28;20076;-78
2022/03/22 03:55:12;;;;;;;9.15;3.50;;;;;;;9.27;64.59;101444.28;2076428;28;20050;-79
2022/03/22 03:56:35;;;;;;;8.52;3.25;;;;;;;9.29;64.54;101439.97;2087050;28;20037;-79
2022/03/22 03:57:57;;;;;;;10.07;3.70;;;;;;;9.28;64.42;101439.91;2081706;28;20378;-78
2022/03/22 03:59:20;;;;;;;7.85;3.10;;;;;;;9.29;64.36;101432.06;2091000;28;20559;-78
2022/03/22 04:00:43;;;;;;;8.75;3.10;;;;;;;9.27;64.11;101435.47;2089742;28;20133;-78
2022/03/22 04:02:07;;;;;;;9.45;3.22;;;;;;;9.24;64.11;101432.78;2092950;28;20083;-79
2022/03/22 04:03:30;;;;;;;5.40;2.53;;;;;;;9.23;63.95;101437.13;2082604;28;20044;-79
2022/03/22 04:04:53;;;;;;;4.43;2.22;;;;;;;9.23;64.11;101441.50;2082057;28;20045;-79
2022/03/22 04:06:14;;;;;;;4.68;2.28;;;;;;;9.23;63.72;101442.41;2092881;28;20097;-79
2022/03/22 04:07:37;;;;;;;5.20;2.63;;;;;;;9.24;63.81;101441.56;2101224;28;20044;-79
2022/03/22 04:08:59;;;;;;;8.45;3.15;;;;;;;9.22;63.58;101440.63;2092888;28;20519;-79
2022/03/22 04:10:22;;;;;;;5.57;2.88;;;;;;;9.23;63.33;101446.78;2095735;28;20551;-79
2022/03/22 04:11:46;;;;;;;6.75;2.60;;;;;;;9.23;63.46;101439.78;2110774;28;20043;-79
2022/03/22 04:13:08;;;;;;;5.93;2.28;;;;;;;9.19;63.07;101449.31;2084089;28;20049;-79
2022/03/22 04:14:31;;;;;;;9.60;2.50;;;;;;;9.18;63.01;101438.75;2101913;28;20211;-79
2022/03/22 04:15:53;;;;;;;5.40;2.40;;;;;;;9.17;63.13;101443.13;2097611;28;20504;-79
2022/03/22 04:17:16;;;;;;;6.00;2.75;;;;;;;9.19;62.78;101433.50;2078969;28;20061;-78
2022/03/22 04:18:39;;;;;;;5.60;2.40;;;;;;;9.17;62.69;101451.00;2095551;28;20048;-79
2022/03/22 04:20:01;;;;;;;4.10;1.80;;;;;;;9.18;62.56;101442.28;2084389;28;20041;-79
2022/03/22 04:21:24;;;;;;;6.53;2.50;;;;;;;9.18;62.23;101444.91;2084557;28;20056;-79
2022/03/22 04:22:47;;;;;;;5.75;2.60;;;;;;;9.20;61.86;101455.47;2084639;28;20064;-79
2022/03/22 04:24:12;;;;;;;4.97;2.15;;;;;;;9.22;61.88;101461.69;2086700;28;20041;-79
2022/03/22 04:25:34;;;;;;;5.03;3.40;;;;;;;9.24;61.83;101464.38;2103833;28;20097;-79
2022/03/22 04:32:41;;;;;;;6.78;3.47;;;;;;;9.22;61.50;101464.31;2084436;28;20397;-79
2022/03/22 04:33:40;;;;;;;4.22;1.92;;;;;;;9.06;61.83;101470.81;2105743;28;20048;-78
2022/03/22 04:35:03;;;;;;;7.68;3.22;;;;;;;9.07;61.86;101461.19;2102926;28;20044;-78
2022/03/22 04:36:26;;;;;;;6.47;3.42;;;;;;;9.07;62.05;101467.34;2095026;28;20064;-78
2022/03/22 04:37:50;;;;;;;7.03;3.10;;;;;;;9.09;61.99;101476.19;2092019;28;20083;-78
2022/03/22 04:39:12;;;;;;;3.72;1.67;;;;;;;9.07;61.88;101467.34;2091111;28;20056;-78
2022/03/22 04:40:35;;;;;;;3.47;2.72;;;;;;;9.04;61.72;101474.25;2084292;28;20041;-78
2022/03/22 04:41:59;;;;;;;6.82;2.40;;;;;;;9.02;62.08;101474.22;2068800;28;20192;-78
2022/03/22 04:43:22;;;;;;;3.55;1.85;;;;;;;8.99;61.91;101473.22;2096183;28;20028;-78
2022/03/22 04:44:45;;;;;;;4.32;2.70;;;;;;;8.97;62.23;101475.81;2079790;28;20465;-79
2022/03/22 04:46:08;;;;;;;2.33;1.75;;;;;;;8.98;62.11;101479.34;2080263;28;20056;-78
2022/03/22 04:47:29;;;;;;;4.65;2.45;;;;;;;8.99;62.25;101473.22;2080537;28;20045;-78
2022/03/22 04:48:53;;;;;;;4.65;2.17;;;;;;;8.99;62.17;101483.75;2078459;28;20525;-78
2022/03/22 04:50:17;;;;;;;4.40;2.20;;;;;;;8.99;62.57;101484.63;2081005;28;20479;-78
2022/03/22 04:56:46;;;;;;;10.23;4.55;;;;;;;8.57;64.16;101514.75;2097230;28;20466;-78
2022/03/22 04:58:10;;;;;;;10.48;4.25;;;;;;;8.50;64.67;101516.25;2088155;28;20060;-78
2022/03/22 04:59:31;;;;;;;12.38;6.38;;;;;;;8.31;65.27;101517.34;2089019;28;20033;-78
2022/03/22 05:00:55;;;;;;;11.07;5.40;;;;;;;8.15;66.32;101508.78;2086816;28;20041;-78
2022/03/22 05:02:17;;;;;;;11.90;6.88;;;;;;;8.04;66.51;101516.28;2085205;28;20452;-77
2022/03/22 05:03:40;;;;;;;14.38;9.05;;;;;;;8.01;67.01;101505.63;2087326;28;20042;-77
2022/03/22 05:05:05;;;;;;;12.15;8.55;;;;;;;7.94;67.45;101504.50;2086844;28;20044;-77
2022/03/22 05:06:26;;;;;;;9.95;4.53;;;;;;;7.89;67.97;101500.81;2091531;28;20045;-77
2022/03/22 05:07:49;;;;;;;11.18;5.60;;;;;;;7.92;68.40;101513.19;2094934;28;20098;-78
2022/03/22 05:09:13;;;;;;;13.60;6.88;;;;;;;7.88;68.94;101499.00;2087156;28;20049;-77
2022/03/22 05:10:36;;;;;;;9.85;5.22;;;;;;;7.83;69.19;101499.69;2102041;28;20044;-77
2022/03/22 05:12:00;;;;;;;9.43;5.30;;;;;;;7.84;69.65;101512.88;2086002;28;20114;-77
2022/03/22 05:13:23;;;;;;;12.70;5.03;;;;;;;7.81;70.12;101507.50;2085616;28;20059;-76
2022/03/22 05:14:50;;;;;;;12.32;4.97;;;;;;;7.82;69.99;101500.50;2082957;28;20417;-78
2022/03/22 05:16:11;;;;;;;12.52;5.20;;;;;;;7.84;70.43;101506.72;2093487;28;20374;-78
2022/03/22 05:17:34;;;;;;;9.95;5.93;;;;;;;7.84;70.51;101512.88;2089217;28;20102;-78
2022/03/22 05:18:57;;;;;;;10.27;5.47;;;;;;;7.85;70.60;101506.78;2094643;28;20488;-79
2022/03/22 05:20:19;;;;;;;8.45;5.47;;;;;;;7.88;70.91;101514.78;2089337;28;20094;-78
2022/03/22 05:21:42;;;;;;;13.13;7.85;;;;;;;7.90;71.06;101509.59;2084164;28;20075;-78
2022/03/22 05:23:04;;;;;;;10.80;7.35;;;;;;;7.89;71.37;101505.16;2096391;28;20040;-78
2022/03/22 05:24:27;;;;;;;10.32;5.88;;;;;;;7.86;71.70;101508.59;2100088;28;20036;-78
2022/03/22 05:25:50;;;;;;;9.07;5.22;;;;;;;7.85;71.94;101512.06;2086781;28;20045;-78
2022/03/22 05:27:15;;;;;;;11.93;6.30;;;;;;;7.75;72.59;101509.88;2086520;28;20129;-79
2022/03/22 05:28:38;;;;;;;11.93;8.75;;;;;;;7.66;72.85;101519.16;2084531;28;20528;-76
2022/03/22 05:30:00;;;;;;;9.23;5.40;;;;;;;7.60;73.24;101522.44;2083625;28;20066;-76
2022/03/22 05:31:23;;;;;;;13.55;8.90;;;;;;;7.59;73.67;101520.66;2086613;28;20132;-76
2022/03/22 05:32:46;;;;;;;11.88;5.22;;;;;;;7.63;73.73;101508.50;2079579;28;20061;-78
2022/03/22 05:34:09;;;;;;;9.35;4.85;;;;;;;7.67;73.89;101513.06;2086328;28;20068;-79
2022/03/22 05:35:31;;;;;;;28.63;13.73;;;;;;;7.71;74.21;101515.88;2103410;28;20051;-79
2022/03/22 05:36:54;;;;;;;40.05;21.38;;;;;;;7.74;73.97;101508.13;2089179;28;20059;-79
2022/03/22 05:38:16;;;;;;;59.97;27.90;;;;;;;7.80;74.36;101508.34;2094366;28;20056;-78
2022/03/22 05:39:39;;;;;;;44.40;25.60;;;;;;;7.86;74.39;101512.94;2095030;28;20500;-78
2022/03/22 05:41:02;;;;;;;39.65;18.20;;;;;;;7.88;74.22;101506.88;2087451;28;20088;-79
2022/03/22 05:42:25;;;;;;;24.05;12.65;;;;;;;7.92;74.33;101508.81;2093005;28;20032;-79
2022/03/22 05:43:49;;;;;;;16.52;8.98;;;;;;;7.96;74.45;101507.19;2090285;28;20052;-79
2022/03/22 05:45:12;;;;;;;8.52;5.10;;;;;;;7.97;74.38;101506.34;2097427;28;20559;-79
2022/03/22 05:46:35;;;;;;;9.52;6.20;;;;;;;7.94;74.63;101508.88;2080828;28;20080;-79
2022/03/22 05:47:58;;;;;;;8.15;5.88;;;;;;;7.92;74.84;101500.94;2104981;28;20394;-80
2022/03/22 05:49:21;;;;;;;12.75;8.27;;;;;;;7.93;74.76;101497.47;2099850;28;20532;-79
2022/03/22 05:50:43;;;;;;;12.00;6.35;;;;;;;7.94;75.05;101488.72;2096024;28;20125;-79
2022/03/22 05:52:07;;;;;;;8.55;5.00;;;;;;;7.96;74.79;101494.03;2087803;28;20085;-79
2022/03/22 05:53:30;;;;;;;10.40;5.18;;;;;;;7.95;75.10;101487.88;2100943;28;20047;-80
2022/03/22 05:54:52;;;;;;;8.40;5.13;;;;;;;7.98;75.05;101500.28;2098038;28;20044;-80
2022/03/22 05:56:15;;;;;;;11.65;6.78;;;;;;;7.98;75.16;101489.75;2103156;28;20044;-79
2022/03/22 05:57:39;;;;;;;9.38;5.13;;;;;;;8.04;75.07;101489.97;2097118;28;20052;-79
2022/03/22 05:59:03;;;;;;;11.15;8.20;;;;;;;8.06;75.33;101480.44;2099290;28;20052;-79
2022/03/22 06:00:24;;;;;;;5.32;3.25;;;;;;;8.01;75.49;101477.59;2089333;28;20064;-79
2022/03/22 06:01:47;;;;;;;8.30;4.15;;;;;;;7.95;75.79;101465.97;2090118;28;20139;-78
2022/03/22 06:03:08;;;;;;;7.68;4.47;;;;;;;7.87;75.82;101457.81;2094467;28;20082;-78
2022/03/22 06:04:31;;;;;;;4.88;2.70;;;;;;;7.80;76.32;101455.78;2080622;28;20386;-79
2022/03/22 06:05:54;;;;;;;4.18;2.33;;;;;;;7.75;76.26;101441.56;2081583;28;20049;-79
2022/03/22 06:07:20;;;;;;;7.15;3.03;;;;;;;7.75;76.52;101454.69;2091819;28;20427;-79
2022/03/22 06:08:42;;;;;;;7.28;4.22;;;;;;;7.81;76.67;101456.69;2094238;28;20104;-79
2022/03/22 06:10:06;;;;;;;6.10;3.05;;;;;;;7.79;76.97;101461.88;2086372;28;20048;-79
2022/03/22 06:11:34;;;;;;;7.35;3.50;;;;;;;7.77;77.11;101458.28;2102105;28;20036;-79
2022/03/22 06:12:58;;;;;;;5.13;2.97;;;;;;;7.75;77.46;101452.06;2101390;28;20067;-79
2022/03/22 06:14:23;;;;;;;5.28;3.20;;;;;;;7.75;77.38;101461.69;2103126;28;20044;-79
2022/03/22 06:15:45;;;;;;;7.68;2.92;;;;;;;7.77;77.48;101458.28;2102894;28;20064;-79
2022/03/22 06:17:08;;;;;;;6.32;3.65;;;;;;;7.80;77.58;101458.41;2099778;28;20064;-79
2022/03/22 06:18:30;;;;;;;8.18;5.82;;;;;;;7.81;77.32;101470.69;2088880;28;20060;-79
2022/03/22 06:19:53;;;;;;;8.52;5.55;;;;;;;7.82;77.27;101472.50;2094627;28;20147;-79
2022/03/22 06:21:15;;;;;;;12.60;8.23;;;;;;;7.85;77.35;101470.00;2100103;28;20073;-79
2022/03/22 06:22:36;;;;;;;6.93;3.78;;;;;;;7.83;77.50;101468.13;2102372;28;20044;-79
2022/03/22 06:23:59;;;;;;;8.70;6.18;;;;;;;7.75;77.74;101456.44;2091856;28;20496;-79
2022/03/22 06:25:20;;;;;;;13.10;9.60;;;;;;;7.74;77.90;101463.44;2100357;28;20411;-79
2022/03/22 06:26:43;;;;;;;19.20;10.48;;;;;;;7.75;78.05;101475.72;2083719;28;20051;-79
2022/03/22 06:28:07;;;;;;;11.95;6.32;;;;;;;7.78;78.33;101469.69;2080636;28;20382;-79
2022/03/22 06:29:31;;;;;;;8.60;3.97;;;;;;;7.82;78.86;101461.09;2099992;28;20043;-78
2022/03/22 06:30:53;;;;;;;6.07;3.25;;;;;;;7.81;79.13;101456.69;2083508;28;20144;-78
2022/03/22 06:32:16;;;;;;;11.13;6.20;;;;;;;7.75;79.49;101459.06;2102055;28;20052;-78
2022/03/22 06:33:39;;;;;;;10.85;6.20;;;;;;;7.78;79.59;101454.84;2083179;28;20608;-79
2022/03/22 06:35:00;;;;;;;8.95;5.53;;;;;;;7.86;79.67;101441.97;2091631;28;20136;-79
2022/03/22 06:36:23;;;;;;;10.98;6.38;;;;;;;7.96;79.78;101439.75;2091043;28;20416;-79
2022/03/22 06:37:47;;;;;;;11.77;7.47;;;;;;;8.09;79.59;101440.19;2086267;28;20090;-78
2022/03/22 06:39:10;;;;;;;14.82;7.95;;;;;;;8.13;79.66;101431.59;2078208;28;20057;-79
2022/03/22 06:40:34;;;;;;;14.00;7.25;;;;;;;8.20;79.63;101434.50;2105863;28;20088;-79
2022/03/22 06:41:56;;;;;;;9.52;5.72;;;;;;;8.24;79.39;101431.13;2090367;28;20049;-79
2022/03/22 06:43:20;;;;;;;10.40;5.95;;;;;;;8.29;79.63;101433.91;2080953;28;20095;-79
2022/03/22 06:44:43;;;;;;;9.80;5.60;;;;;;;8.35;79.64;101428.88;2100132;28;20123;-79
2022/03/22 06:46:05;;;;;;;13.88;9.13;;;;;;;8.42;79.68;101436.16;2099678;28;20037;-79
2022/03/22 06:47:26;;;;;;;10.60;6.97;;;;;;;8.51;79.60;101438.22;2096584;28;20511;-80
2022/03/22 06:48:49;;;;;;;16.33;9.93;;;;;;;8.58;79.67;101434.97;2108513;28;20467;-80
2022/03/22 06:50:15;;;;;;;16.67;9.40;;;;;;;8.67;79.56;101435.25;2082950;28;20079;-80
2022/03/22 06:51:38;;;;;;;13.20;7.72;;;;;;;8.74;79.80;101435.53;2075938;28;20049;-80